sensor_id;sensor_type;location;lat;lon;timestamp;P1;durP1;ratioP1;P2;durP2;ratioP2
38879;SDS011;25887;30.194;-97.880;2023-04-15T00:00:57;4.32;;;2.17;;
38879;SDS011;25887;30.194;-97.880;2023-04-15T00:03:24;12.05;;;3.05;;
38879;SDS011;25887;30.194;-97.880;2023-04-15T00:05:50;5.88;;;3.10;;
38879;SDS011;25887;30.194;-97.880;2023-04-15T00:08:16;9.38;;;2.63;;
38879;SDS011;25887;30.194;-97.880;2023-04-15T00:10:42;6.65;;;2.30;;
38879;SDS011;25887;30.194;-97.880;2023-04-15T00:13:10;5.47;;;2.13;;
38879;SDS011;25887;30.194;-97.880;2023-04-15T00:15:37;4.38;;;1.90;;
38879;SDS011;25887;30.194;-97.880;2023-04-15T00:18:03;7.63;;;2.65;;
38879;SDS011;25887;30.194;-97.880;2023-04-15T00:20:29;6.22;;;2.17;;
38879;SDS011;25887;30.194;-97.880;2023-04-15T00:22:55;8.40;;;2.92;;
38879;SDS011;25887;30.194;-97.880;2023-04-15T00:25:22;7.07;;;2.58;;
38879;SDS011;25887;30.194;-97.880;2023-04-15T00:27:49;8.32;;;2.40;;
38879;SDS011;25887;30.194;-97.880;2023-04-15T00:30:15;5.32;;;2.20;;
38879;SDS011;25887;30.194;-97.880;2023-04-15T00:32:41;4.07;;;2.45;;
38879;SDS011;25887;30.194;-97.880;2023-04-15T00:35:07;3.83;;;2.22;;
38879;SDS011;25887;30.194;-97.880;2023-04-15T00:37:33;7.50;;;2.22;;
38879;SDS011;25887;30.194;-97.880;2023-04-15T00:40:01;6.35;;;2.30;;
38879;SDS011;25887;30.194;-97.880;2023-04-15T00:42:29;4.15;;;2.00;;
38879;SDS011;25887;30.194;-97.880;2023-04-15T00:44:55;6.15;;;2.75;;
38879;SDS011;25887;30.194;-97.880;2023-04-15T00:47:22;8.65;;;3.03;;
38879;SDS011;25887;30.194;-97.880;2023-04-15T00:49:48;4.82;;;2.08;;
38879;SDS011;25887;30.194;-97.880;2023-04-15T00:52:14;6.88;;;2.00;;
38879;SDS011;25887;30.194;-97.880;2023-04-15T00:54:41;5.00;;;2.13;;
38879;SDS011;25887;30.194;-97.880;2023-04-15T00:57:07;6.65;;;2.00;;
38879;SDS011;25887;30.194;-97.880;2023-04-15T00:59:34;5.38;;;2.10;;
38879;SDS011;25887;30.194;-97.880;2023-04-15T01:02:01;4.95;;;2.10;;
38879;SDS011;25887;30.194;-97.880;2023-04-15T01:04:27;4.88;;;2.17;;
38879;SDS011;25887;30.194;-97.880;2023-04-15T01:06:53;6.32;;;2.17;;
38879;SDS011;25887;30.194;-97.880;2023-04-15T01:09:20;8.60;;;2.42;;
38879;SDS011;25887;30.194;-97.880;2023-04-15T01:11:46;3.45;;;1.98;;
38879;SDS011;25887;30.194;-97.880;2023-04-15T01:14:14;5.95;;;2.40;;
38879;SDS011;25887;30.194;-97.880;2023-04-15T01:16:40;6.43;;;2.08;;
38879;SDS011;25887;30.194;-97.880;2023-04-15T01:19:07;6.55;;;2.70;;
38879;SDS011;25887;30.194;-97.880;2023-04-15T01:21:36;5.65;;;2.22;;
38879;SDS011;25887;30.194;-97.880;2023-04-15T01:24:07;5.10;;;2.22;;
38879;SDS011;25887;30.194;-97.880;2023-04-15T01:26:38;11.10;;;2.35;;
38879;SDS011;25887;30.194;-97.880;2023-04-15T01:29:05;8.43;;;2.00;;
38879;SDS011;25887;30.194;-97.880;2023-04-15T01:31:34;5.97;;;2.03;;
38879;SDS011;25887;30.194;-97.880;2023-04-15T01:34:00;8.15;;;1.90;;
38879;SDS011;25887;30.194;-97.880;2023-04-15T01:36:26;10.02;;;2.25;;
38879;SDS011;25887;30.194;-97.880;2023-04-15T01:38:53;5.53;;;2.53;;
38879;SDS011;25887;30.194;-97.880;2023-04-15T01:41:21;6.50;;;2.38;;
38879;SDS011;25887;30.194;-97.880;2023-04-15T01:43:52;5.15;;;1.98;;
38879;SDS011;25887;30.194;-97.880;2023-04-15T01:46:21;9.10;;;2.97;;
38879;SDS011;25887;30.194;-97.880;2023-04-15T01:48:47;8.18;;;2.33;;
38879;SDS011;25887;30.194;-97.880;2023-04-15T01:51:13;5.50;;;1.88;;
38879;SDS011;25887;30.194;-97.880;2023-04-15T01:53:39;7.55;;;2.00;;
38879;SDS011;25887;30.194;-97.880;2023-04-15T01:56:06;12.32;;;2.15;;
38879;SDS011;25887;30.194;-97.880;2023-04-15T01:58:32;6.30;;;1.95;;
38879;SDS011;25887;30.194;-97.880;2023-04-15T02:00:58;3.55;;;1.67;;
38879;SDS011;25887;30.194;-97.880;2023-04-15T02:03:24;3.78;;;1.92;;
38879;SDS011;25887;30.194;-97.880;2023-04-15T02:05:51;5.35;;;2.00;;
38879;SDS011;25887;30.194;-97.880;2023-04-15T02:08:18;8.65;;;2.00;;
38879;SDS011;25887;30.194;-97.880;2023-04-15T02:10:44;6.45;;;2.05;;
38879;SDS011;25887;30.194;-97.880;2023-04-15T02:13:10;4.95;;;2.13;;
38879;SDS011;25887;30.194;-97.880;2023-04-15T02:15:37;4.53;;;2.05;;
38879;SDS011;25887;30.194;-97.880;2023-04-15T02:18:03;6.38;;;2.20;;
38879;SDS011;25887;30.194;-97.880;2023-04-15T02:20:29;4.60;;;2.00;;
38879;SDS011;25887;30.194;-97.880;2023-04-15T02:22:56;8.77;;;2.22;;
38879;SDS011;25887;30.194;-97.880;2023-04-15T02:25:22;10.18;;;2.40;;
38879;SDS011;25887;30.194;-97.880;2023-04-15T02:27:48;4.63;;;1.90;;
38879;SDS011;25887;30.194;-97.880;2023-04-15T02:30:14;4.57;;;1.80;;
38879;SDS011;25887;30.194;-97.880;2023-04-15T02:32:41;4.10;;;1.88;;
38879;SDS011;25887;30.194;-97.880;2023-04-15T02:35:09;2.30;;;1.80;;
38879;SDS011;25887;30.194;-97.880;2023-04-15T02:37:36;10.15;;;2.13;;
38879;SDS011;25887;30.194;-97.880;2023-04-15T02:40:10;3.63;;;1.90;;
38879;SDS011;25887;30.194;-97.880;2023-04-15T02:42:40;6.10;;;1.92;;
38879;SDS011;25887;30.194;-97.880;2023-04-15T02:45:08;5.50;;;1.85;;
38879;SDS011;25887;30.194;-97.880;2023-04-15T02:47:43;3.45;;;1.58;;
38879;SDS011;25887;30.194;-97.880;2023-04-15T02:50:10;11.15;;;2.22;;
38879;SDS011;25887;30.194;-97.880;2023-04-15T02:52:41;8.73;;;2.10;;
38879;SDS011;25887;30.194;-97.880;2023-04-15T02:55:08;9.23;;;2.67;;
38879;SDS011;25887;30.194;-97.880;2023-04-15T02:57:42;8.23;;;2.40;;
38879;SDS011;25887;30.194;-97.880;2023-04-15T03:00:08;3.63;;;2.08;;
38879;SDS011;25887;30.194;-97.880;2023-04-15T03:02:36;6.05;;;2.30;;
38879;SDS011;25887;30.194;-97.880;2023-04-15T03:09:03;7.47;;;2.08;;
38879;SDS011;25887;30.194;-97.880;2023-04-15T03:11:29;5.43;;;2.20;;
38879;SDS011;25887;30.194;-97.880;2023-04-15T03:13:57;6.03;;;2.38;;
38879;SDS011;25887;30.194;-97.880;2023-04-15T03:16:23;5.68;;;2.20;;
38879;SDS011;25887;30.194;-97.880;2023-04-15T03:18:50;9.40;;;2.38;;
38879;SDS011;25887;30.194;-97.880;2023-04-15T03:21:16;8.10;;;2.38;;
38879;SDS011;25887;30.194;-97.880;2023-04-15T03:23:44;9.98;;;2.70;;
38879;SDS011;25887;30.194;-97.880;2023-04-15T03:26:22;7.40;;;2.92;;
38879;SDS011;25887;30.194;-97.880;2023-04-15T03:28:53;6.72;;;2.92;;
38879;SDS011;25887;30.194;-97.880;2023-04-15T03:31:19;10.38;;;3.30;;
38879;SDS011;25887;30.194;-97.880;2023-04-15T03:33:45;7.50;;;2.53;;
38879;SDS011;25887;30.194;-97.880;2023-04-15T03:36:12;10.10;;;3.25;;
38879;SDS011;25887;30.194;-97.880;2023-04-15T03:38:38;6.97;;;2.75;;
38879;SDS011;25887;30.194;-97.880;2023-04-15T03:41:04;6.97;;;2.45;;
38879;SDS011;25887;30.194;-97.880;2023-04-15T03:43:33;7.55;;;2.58;;
38879;SDS011;25887;30.194;-97.880;2023-04-15T03:45:59;8.15;;;2.88;;
38879;SDS011;25887;30.194;-97.880;2023-04-15T03:48:25;10.02;;;2.85;;
38879;SDS011;25887;30.194;-97.880;2023-04-15T03:50:52;8.13;;;2.60;;
38879;SDS011;25887;30.194;-97.880;2023-04-15T03:53:20;4.75;;;2.50;;
38879;SDS011;25887;30.194;-97.880;2023-04-15T03:59:31;4.47;;;2.40;;
38879;SDS011;25887;30.194;-97.880;2023-04-15T04:01:58;6.68;;;2.83;;
38879;SDS011;25887;30.194;-97.880;2023-04-15T04:04:24;7.95;;;2.78;;
38879;SDS011;25887;30.194;-97.880;2023-04-15T04:06:51;4.80;;;2.53;;
38879;SDS011;25887;30.194;-97.880;2023-04-15T04:09:17;7.35;;;2.33;;
38879;SDS011;25887;30.194;-97.880;2023-04-15T04:11:43;7.40;;;2.90;;
38879;SDS011;25887;30.194;-97.880;2023-04-15T04:14:10;8.48;;;2.45;;
38879;SDS011;25887;30.194;-97.880;2023-04-15T04:16:36;7.90;;;2.55;;
38879;SDS011;25887;30.194;-97.880;2023-04-15T04:19:02;6.68;;;2.50;;
38879;SDS011;25887;30.194;-97.880;2023-04-15T04:21:28;6.47;;;2.40;;
38879;SDS011;25887;30.194;-97.880;2023-04-15T04:23:55;10.27;;;2.80;;
38879;SDS011;25887;30.194;-97.880;2023-04-15T04:26:21;4.90;;;2.30;;
38879;SDS011;25887;30.194;-97.880;2023-04-15T04:28:47;9.98;;;2.53;;
38879;SDS011;25887;30.194;-97.880;2023-04-15T04:31:13;5.45;;;2.30;;
38879;SDS011;25887;30.194;-97.880;2023-04-15T04:33:39;4.07;;;2.30;;
38879;SDS011;25887;30.194;-97.880;2023-04-15T04:36:06;8.48;;;3.03;;
38879;SDS011;25887;30.194;-97.880;2023-04-15T04:38:32;6.63;;;2.28;;
38879;SDS011;25887;30.194;-97.880;2023-04-15T04:40:59;6.88;;;2.03;;
38879;SDS011;25887;30.194;-97.880;2023-04-15T04:43:25;8.43;;;2.45;;
38879;SDS011;25887;30.194;-97.880;2023-04-15T04:45:51;4.18;;;2.17;;
38879;SDS011;25887;30.194;-97.880;2023-04-15T04:48:17;6.78;;;2.38;;
38879;SDS011;25887;30.194;-97.880;2023-04-15T04:50:44;6.70;;;2.45;;
38879;SDS011;25887;30.194;-97.880;2023-04-15T04:53:11;11.75;;;2.35;;
38879;SDS011;25887;30.194;-97.880;2023-04-15T04:55:37;10.50;;;2.50;;
38879;SDS011;25887;30.194;-97.880;2023-04-15T04:58:03;8.85;;;2.38;;
38879;SDS011;25887;30.194;-97.880;2023-04-15T05:00:29;9.75;;;2.15;;
38879;SDS011;25887;30.194;-97.880;2023-04-15T05:02:56;6.78;;;2.40;;
38879;SDS011;25887;30.194;-97.880;2023-04-15T05:05:22;4.75;;;2.10;;
38879;SDS011;25887;30.194;-97.880;2023-04-15T05:07:48;4.45;;;2.10;;
38879;SDS011;25887;30.194;-97.880;2023-04-15T05:10:15;8.43;;;2.20;;
38879;SDS011;25887;30.194;-97.880;2023-04-15T05:12:42;6.28;;;2.40;;
38879;SDS011;25887;30.194;-97.880;2023-04-15T05:15:08;10.23;;;2.50;;
38879;SDS011;25887;30.194;-97.880;2023-04-15T05:17:35;7.47;;;2.50;;
38879;SDS011;25887;30.194;-97.880;2023-04-15T05:20:01;6.50;;;2.20;;
38879;SDS011;25887;30.194;-97.880;2023-04-15T05:22:28;6.32;;;2.33;;
38879;SDS011;25887;30.194;-97.880;2023-04-15T05:24:54;8.70;;;2.42;;
38879;SDS011;25887;30.194;-97.880;2023-04-15T05:27:20;6.40;;;2.30;;
38879;SDS011;25887;30.194;-97.880;2023-04-15T05:29:48;7.47;;;2.70;;
38879;SDS011;25887;30.194;-97.880;2023-04-15T05:32:14;7.70;;;2.17;;
38879;SDS011;25887;30.194;-97.880;2023-04-15T05:34:41;7.90;;;2.60;;
38879;SDS011;25887;30.194;-97.880;2023-04-15T05:37:07;7.95;;;2.50;;
38879;SDS011;25887;30.194;-97.880;2023-04-15T05:39:33;6.18;;;2.28;;
38879;SDS011;25887;30.194;-97.880;2023-04-15T05:42:00;4.28;;;2.20;;
38879;SDS011;25887;30.194;-97.880;2023-04-15T05:44:26;10.07;;;2.33;;
38879;SDS011;25887;30.194;-97.880;2023-04-15T05:46:52;8.57;;;2.25;;
38879;SDS011;25887;30.194;-97.880;2023-04-15T05:49:18;8.15;;;2.63;;
38879;SDS011;25887;30.194;-97.880;2023-04-15T05:51:46;3.78;;;1.90;;
38879;SDS011;25887;30.194;-97.880;2023-04-15T05:54:12;6.00;;;2.13;;
38879;SDS011;25887;30.194;-97.880;2023-04-15T05:56:39;10.32;;;2.42;;
38879;SDS011;25887;30.194;-97.880;2023-04-15T05:59:05;7.55;;;2.60;;
38879;SDS011;25887;30.194;-97.880;2023-04-15T06:01:33;11.32;;;2.75;;
38879;SDS011;25887;30.194;-97.880;2023-04-15T06:03:59;8.48;;;3.33;;
38879;SDS011;25887;30.194;-97.880;2023-04-15T06:06:26;10.88;;;3.20;;
38879;SDS011;25887;30.194;-97.880;2023-04-15T06:08:52;7.35;;;2.67;;
38879;SDS011;25887;30.194;-97.880;2023-04-15T06:11:20;6.95;;;2.47;;
38879;SDS011;25887;30.194;-97.880;2023-04-15T06:13:46;7.43;;;2.55;;
38879;SDS011;25887;30.194;-97.880;2023-04-15T06:16:12;9.45;;;2.40;;
38879;SDS011;25887;30.194;-97.880;2023-04-15T06:18:38;10.25;;;2.40;;
38879;SDS011;25887;30.194;-97.880;2023-04-15T06:21:05;7.47;;;2.22;;
38879;SDS011;25887;30.194;-97.880;2023-04-15T06:23:33;9.48;;;2.20;;
38879;SDS011;25887;30.194;-97.880;2023-04-15T06:26:02;5.95;;;2.60;;
38879;SDS011;25887;30.194;-97.880;2023-04-15T06:28:28;10.40;;;2.47;;
38879;SDS011;25887;30.194;-97.880;2023-04-15T06:30:54;6.10;;;2.50;;
38879;SDS011;25887;30.194;-97.880;2023-04-15T06:33:20;5.55;;;2.30;;
38879;SDS011;25887;30.194;-97.880;2023-04-15T06:35:47;5.65;;;2.38;;
38879;SDS011;25887;30.194;-97.880;2023-04-15T06:38:13;4.22;;;2.10;;
38879;SDS011;25887;30.194;-97.880;2023-04-15T06:40:40;7.65;;;2.63;;
38879;SDS011;25887;30.194;-97.880;2023-04-15T06:43:06;7.72;;;2.50;;
38879;SDS011;25887;30.194;-97.880;2023-04-15T06:45:33;8.20;;;2.70;;
38879;SDS011;25887;30.194;-97.880;2023-04-15T06:47:59;5.40;;;2.55;;
38879;SDS011;25887;30.194;-97.880;2023-04-15T06:50:26;9.90;;;2.60;;
38879;SDS011;25887;30.194;-97.880;2023-04-15T06:52:55;8.95;;;2.60;;
38879;SDS011;25887;30.194;-97.880;2023-04-15T06:55:21;4.15;;;2.25;;
38879;SDS011;25887;30.194;-97.880;2023-04-15T06:57:47;5.68;;;2.25;;
38879;SDS011;25887;30.194;-97.880;2023-04-15T07:00:14;5.57;;;2.15;;
38879;SDS011;25887;30.194;-97.880;2023-04-15T07:02:40;5.18;;;2.28;;
38879;SDS011;25887;30.194;-97.880;2023-04-15T07:05:06;4.85;;;1.98;;
38879;SDS011;25887;30.194;-97.880;2023-04-15T07:07:33;9.52;;;3.20;;
38879;SDS011;25887;30.194;-97.880;2023-04-15T07:10:00;6.78;;;2.25;;
38879;SDS011;25887;30.194;-97.880;2023-04-15T07:12:27;5.63;;;2.60;;
38879;SDS011;25887;30.194;-97.880;2023-04-15T07:14:53;8.98;;;2.90;;
38879;SDS011;25887;30.194;-97.880;2023-04-15T07:17:20;11.73;;;2.47;;
38879;SDS011;25887;30.194;-97.880;2023-04-15T07:19:46;4.93;;;2.53;;
38879;SDS011;25887;30.194;-97.880;2023-04-15T07:22:12;6.50;;;2.67;;
38879;SDS011;25887;30.194;-97.880;2023-04-15T07:24:39;4.40;;;2.53;;
38879;SDS011;25887;30.194;-97.880;2023-04-15T07:27:05;10.25;;;3.40;;
38879;SDS011;25887;30.194;-97.880;2023-04-15T07:29:34;8.75;;;2.45;;
38879;SDS011;25887;30.194;-97.880;2023-04-15T07:32:02;6.85;;;2.17;;
38879;SDS011;25887;30.194;-97.880;2023-04-15T07:34:28;11.05;;;2.97;;
38879;SDS011;25887;30.194;-97.880;2023-04-15T07:36:54;5.47;;;2.60;;
38879;SDS011;25887;30.194;-97.880;2023-04-15T07:39:20;7.47;;;2.88;;
38879;SDS011;25887;30.194;-97.880;2023-04-15T07:41:47;4.40;;;2.13;;
38879;SDS011;25887;30.194;-97.880;2023-04-15T07:44:13;4.68;;;2.65;;
38879;SDS011;25887;30.194;-97.880;2023-04-15T07:46:39;8.15;;;3.33;;
38879;SDS011;25887;30.194;-97.880;2023-04-15T07:49:06;3.95;;;2.03;;
38879;SDS011;25887;30.194;-97.880;2023-04-15T07:51:32;8.02;;;2.20;;
38879;SDS011;25887;30.194;-97.880;2023-04-15T07:53:58;6.68;;;1.73;;
38879;SDS011;25887;30.194;-97.880;2023-04-15T07:56:24;8.68;;;2.17;;
38879;SDS011;25887;30.194;-97.880;2023-04-15T07:58:51;3.28;;;1.75;;
38879;SDS011;25887;30.194;-97.880;2023-04-15T08:01:17;6.05;;;2.38;;
38879;SDS011;25887;30.194;-97.880;2023-04-15T08:03:43;3.60;;;1.95;;
38879;SDS011;25887;30.194;-97.880;2023-04-15T08:06:10;4.60;;;1.75;;
38879;SDS011;25887;30.194;-97.880;2023-04-15T08:08:36;4.18;;;1.98;;
38879;SDS011;25887;30.194;-97.880;2023-04-15T08:11:02;11.38;;;1.92;;
38879;SDS011;25887;30.194;-97.880;2023-04-15T08:13:28;4.65;;;1.92;;
38879;SDS011;25887;30.194;-97.880;2023-04-15T08:16:15;3.05;;;1.63;;
38879;SDS011;25887;30.194;-97.880;2023-04-15T08:18:44;4.00;;;2.05;;
38879;SDS011;25887;30.194;-97.880;2023-04-15T08:21:11;5.82;;;2.08;;
38879;SDS011;25887;30.194;-97.880;2023-04-15T08:23:38;7.63;;;1.92;;
38879;SDS011;25887;30.194;-97.880;2023-04-15T08:26:04;4.68;;;1.75;;
38879;SDS011;25887;30.194;-97.880;2023-04-15T08:28:30;5.43;;;1.85;;
38879;SDS011;25887;30.194;-97.880;2023-04-15T08:30:57;4.13;;;1.80;;
38879;SDS011;25887;30.194;-97.880;2023-04-15T08:33:23;6.32;;;1.70;;
38879;SDS011;25887;30.194;-97.880;2023-04-15T08:35:49;5.38;;;1.70;;
38879;SDS011;25887;30.194;-97.880;2023-04-15T08:38:16;7.30;;;1.70;;
38879;SDS011;25887;30.194;-97.880;2023-04-15T08:40:45;2.92;;;1.20;;
38879;SDS011;25887;30.194;-97.880;2023-04-15T08:43:12;3.15;;;1.77;;
38879;SDS011;25887;30.194;-97.880;2023-04-15T08:45:45;3.45;;;1.40;;
38879;SDS011;25887;30.194;-97.880;2023-04-15T08:48:14;2.78;;;1.67;;
38879;SDS011;25887;30.194;-97.880;2023-04-15T08:50:41;4.90;;;1.65;;
38879;SDS011;25887;30.194;-97.880;2023-04-15T08:53:08;2.50;;;1.42;;
38879;SDS011;25887;30.194;-97.880;2023-04-15T08:55:38;7.63;;;1.20;;
38879;SDS011;25887;30.194;-97.880;2023-04-15T08:58:10;5.35;;;1.63;;
38879;SDS011;25887;30.194;-97.880;2023-04-15T09:00:41;4.18;;;1.42;;
38879;SDS011;25887;30.194;-97.880;2023-04-15T09:03:07;2.92;;;1.48;;
38879;SDS011;25887;30.194;-97.880;2023-04-15T09:05:34;2.75;;;1.35;;
38879;SDS011;25887;30.194;-97.880;2023-04-15T09:08:01;2.63;;;1.58;;
38879;SDS011;25887;30.194;-97.880;2023-04-15T09:10:28;1.25;;;1.00;;
38879;SDS011;25887;30.194;-97.880;2023-04-15T09:12:56;5.15;;;1.33;;
38879;SDS011;25887;30.194;-97.880;2023-04-15T09:15:26;2.10;;;1.02;;
38879;SDS011;25887;30.194;-97.880;2023-04-15T09:17:54;2.13;;;1.00;;
38879;SDS011;25887;30.194;-97.880;2023-04-15T09:20:21;3.55;;;1.30;;
38879;SDS011;25887;30.194;-97.880;2023-04-15T09:22:48;2.08;;;1.08;;
38879;SDS011;25887;30.194;-97.880;2023-04-15T09:27:55;3.50;;;1.52;;
38879;SDS011;25887;30.194;-97.880;2023-04-15T09:33:54;2.05;;;1.17;;
38879;SDS011;25887;30.194;-97.880;2023-04-15T09:36:21;2.45;;;0.98;;
38879;SDS011;25887;30.194;-97.880;2023-04-15T09:38:56;3.80;;;1.05;;
38879;SDS011;25887;30.194;-97.880;2023-04-15T09:41:24;1.80;;;1.00;;
38879;SDS011;25887;30.194;-97.880;2023-04-15T09:43:51;1.13;;;0.93;;
38879;SDS011;25887;30.194;-97.880;2023-04-15T09:46:17;4.38;;;1.48;;
38879;SDS011;25887;30.194;-97.880;2023-04-15T09:48:47;6.07;;;1.00;;
38879;SDS011;25887;30.194;-97.880;2023-04-15T09:51:36;1.77;;;0.95;;
38879;SDS011;25887;30.194;-97.880;2023-04-15T09:54:02;4.32;;;0.90;;
38879;SDS011;25887;30.194;-97.880;2023-04-15T09:56:36;4.85;;;1.10;;
38879;SDS011;25887;30.194;-97.880;2023-04-15T09:59:06;6.35;;;1.30;;
38879;SDS011;25887;30.194;-97.880;2023-04-15T10:01:33;3.35;;;1.02;;
38879;SDS011;25887;30.194;-97.880;2023-04-15T10:04:03;5.45;;;1.00;;
38879;SDS011;25887;30.194;-97.880;2023-04-15T10:06:30;2.90;;;0.90;;
38879;SDS011;25887;30.194;-97.880;2023-04-15T10:08:58;2.53;;;0.90;;
38879;SDS011;25887;30.194;-97.880;2023-04-15T10:11:27;4.57;;;0.60;;
38879;SDS011;25887;30.194;-97.880;2023-04-15T10:13:55;3.00;;;1.27;;
38879;SDS011;25887;30.194;-97.880;2023-04-15T10:16:22;2.33;;;0.98;;
38879;SDS011;25887;30.194;-97.880;2023-04-15T10:18:56;2.83;;;1.02;;
38879;SDS011;25887;30.194;-97.880;2023-04-15T10:21:26;1.55;;;0.55;;
38879;SDS011;25887;30.194;-97.880;2023-04-15T10:23:53;1.92;;;1.08;;
38879;SDS011;25887;30.194;-97.880;2023-04-15T10:26:21;2.60;;;0.90;;
38879;SDS011;25887;30.194;-97.880;2023-04-15T10:28:47;1.52;;;0.93;;
38879;SDS011;25887;30.194;-97.880;2023-04-15T10:31:14;2.65;;;1.00;;
38879;SDS011;25887;30.194;-97.880;2023-04-15T10:33:42;3.30;;;1.10;;
38879;SDS011;25887;30.194;-97.880;2023-04-15T10:36:10;2.25;;;0.90;;
38879;SDS011;25887;30.194;-97.880;2023-04-15T10:38:38;1.65;;;0.90;;
38879;SDS011;25887;30.194;-97.880;2023-04-15T10:43:52;2.65;;;1.00;;
38879;SDS011;25887;30.194;-97.880;2023-04-15T10:46:21;1.42;;;1.00;;
38879;SDS011;25887;30.194;-97.880;2023-04-15T10:49:10;3.13;;;1.00;;
38879;SDS011;25887;30.194;-97.880;2023-04-15T10:51:39;3.83;;;0.90;;
38879;SDS011;25887;30.194;-97.880;2023-04-15T10:54:16;0.50;;;0.50;;
38879;SDS011;25887;30.194;-97.880;2023-04-15T11:00:17;0.70;;;0.65;;
38879;SDS011;25887;30.194;-97.880;2023-04-15T11:02:39;1.30;;;0.85;;
38879;SDS011;25887;30.194;-97.880;2023-04-15T11:05:11;2.95;;;0.95;;
38879;SDS011;25887;30.194;-97.880;2023-04-15T11:07:50;2.10;;;0.88;;
38879;SDS011;25887;30.194;-97.880;2023-04-15T11:12:57;1.83;;;1.00;;
38879;SDS011;25887;30.194;-97.880;2023-04-15T11:15:54;2.67;;;0.77;;
38879;SDS011;25887;30.194;-97.880;2023-04-15T11:18:23;2.60;;;1.10;;
38879;SDS011;25887;30.194;-97.880;2023-04-15T11:20:56;1.15;;;0.77;;
38879;SDS011;25887;30.194;-97.880;2023-04-15T11:23:39;1.75;;;0.73;;
38879;SDS011;25887;30.194;-97.880;2023-04-15T11:26:11;4.05;;;0.95;;
38879;SDS011;25887;30.194;-97.880;2023-04-15T11:28:39;2.63;;;0.90;;
38879;SDS011;25887;30.194;-97.880;2023-04-15T11:31:07;3.70;;;0.90;;
38879;SDS011;25887;30.194;-97.880;2023-04-15T11:36:12;1.05;;;0.63;;
38879;SDS011;25887;30.194;-97.880;2023-04-15T11:38:41;4.80;;;0.88;;
38879;SDS011;25887;30.194;-97.880;2023-04-15T11:41:09;2.75;;;0.90;;
38879;SDS011;25887;30.194;-97.880;2023-04-15T11:43:36;1.50;;;1.00;;
38879;SDS011;25887;30.194;-97.880;2023-04-15T11:46:02;3.05;;;0.82;;
38879;SDS011;25887;30.194;-97.880;2023-04-15T11:48:29;1.80;;;1.13;;
38879;SDS011;25887;30.194;-97.880;2023-04-15T11:51:06;1.10;;;0.68;;
38879;SDS011;25887;30.194;-97.880;2023-04-15T11:53:42;2.53;;;0.80;;
38879;SDS011;25887;30.194;-97.880;2023-04-15T11:56:20;0.98;;;0.75;;
38879;SDS011;25887;30.194;-97.880;2023-04-15T11:58:51;0.90;;;0.80;;
38879;SDS011;25887;30.194;-97.880;2023-04-15T12:01:36;2.92;;;0.95;;
38879;SDS011;25887;30.194;-97.880;2023-04-15T12:04:11;2.60;;;0.85;;
38879;SDS011;25887;30.194;-97.880;2023-04-15T12:06:44;2.08;;;0.90;;
38879;SDS011;25887;30.194;-97.880;2023-04-15T12:09:11;3.42;;;1.00;;
38879;SDS011;25887;30.194;-97.880;2023-04-15T12:11:48;2.42;;;1.02;;
38879;SDS011;25887;30.194;-97.880;2023-04-15T12:14:18;3.33;;;0.73;;
38879;SDS011;25887;30.194;-97.880;2023-04-15T12:16:56;4.38;;;1.90;;
38879;SDS011;25887;30.194;-97.880;2023-04-15T12:19:37;2.40;;;0.68;;
38879;SDS011;25887;30.194;-97.880;2023-04-15T12:22:10;10.77;;;1.60;;
38879;SDS011;25887;30.194;-97.880;2023-04-15T12:24:37;4.75;;;1.00;;
38879;SDS011;25887;30.194;-97.880;2023-04-15T12:27:06;3.42;;;0.77;;
38879;SDS011;25887;30.194;-97.880;2023-04-15T12:29:35;4.00;;;1.05;;
38879;SDS011;25887;30.194;-97.880;2023-04-15T12:32:08;1.67;;;0.93;;
38879;SDS011;25887;30.194;-97.880;2023-04-15T12:34:39;1.77;;;0.98;;
38879;SDS011;25887;30.194;-97.880;2023-04-15T12:37:07;4.25;;;1.00;;
38879;SDS011;25887;30.194;-97.880;2023-04-15T12:39:35;4.60;;;1.10;;
38879;SDS011;25887;30.194;-97.880;2023-04-15T12:42:09;2.15;;;0.70;;
38879;SDS011;25887;30.194;-97.880;2023-04-15T12:44:36;3.95;;;1.42;;
38879;SDS011;25887;30.194;-97.880;2023-04-15T12:47:03;1.33;;;0.80;;
38879;SDS011;25887;30.194;-97.880;2023-04-15T12:49:31;1.73;;;1.00;;
38879;SDS011;25887;30.194;-97.880;2023-04-15T12:51:59;4.22;;;1.80;;
38879;SDS011;25887;30.194;-97.880;2023-04-15T12:54:27;1.85;;;0.80;;
38879;SDS011;25887;30.194;-97.880;2023-04-15T12:56:53;3.30;;;0.77;;
38879;SDS011;25887;30.194;-97.880;2023-04-15T12:59:20;2.53;;;1.08;;
38879;SDS011;25887;30.194;-97.880;2023-04-15T13:01:48;1.50;;;1.02;;
38879;SDS011;25887;30.194;-97.880;2023-04-15T13:04:15;1.33;;;0.63;;
38879;SDS011;25887;30.194;-97.880;2023-04-15T13:06:42;1.60;;;0.85;;
38879;SDS011;25887;30.194;-97.880;2023-04-15T13:09:08;1.75;;;0.90;;
38879;SDS011;25887;30.194;-97.880;2023-04-15T13:11:35;3.28;;;0.98;;
38879;SDS011;25887;30.194;-97.880;2023-04-15T13:14:05;3.38;;;1.17;;
38879;SDS011;25887;30.194;-97.880;2023-04-15T13:16:33;3.35;;;1.30;;
38879;SDS011;25887;30.194;-97.880;2023-04-15T13:19:00;2.08;;;0.93;;
38879;SDS011;25887;30.194;-97.880;2023-04-15T13:21:27;2.97;;;1.05;;
38879;SDS011;25887;30.194;-97.880;2023-04-15T13:23:55;3.35;;;1.10;;
38879;SDS011;25887;30.194;-97.880;2023-04-15T13:26:21;3.58;;;1.45;;
38879;SDS011;25887;30.194;-97.880;2023-04-15T13:28:47;3.33;;;1.02;;
38879;SDS011;25887;30.194;-97.880;2023-04-15T13:31:13;2.53;;;1.15;;
38879;SDS011;25887;30.194;-97.880;2023-04-15T13:33:40;1.65;;;1.00;;
38879;SDS011;25887;30.194;-97.880;2023-04-15T13:36:06;3.75;;;1.38;;
38879;SDS011;25887;30.194;-97.880;2023-04-15T13:38:33;1.55;;;1.00;;
38879;SDS011;25887;30.194;-97.880;2023-04-15T13:40:59;3.22;;;1.45;;
38879;SDS011;25887;30.194;-97.880;2023-04-15T13:43:25;8.95;;;1.77;;
38879;SDS011;25887;30.194;-97.880;2023-04-15T13:45:52;3.97;;;1.45;;
38879;SDS011;25887;30.194;-97.880;2023-04-15T13:48:18;3.72;;;1.48;;
38879;SDS011;25887;30.194;-97.880;2023-04-15T13:50:44;5.38;;;1.55;;
38879;SDS011;25887;30.194;-97.880;2023-04-15T13:53:10;3.08;;;1.88;;
38879;SDS011;25887;30.194;-97.880;2023-04-15T13:55:37;7.07;;;1.50;;
38879;SDS011;25887;30.194;-97.880;2023-04-15T13:58:10;7.32;;;2.28;;
38879;SDS011;25887;30.194;-97.880;2023-04-15T14:00:36;4.80;;;1.90;;
38879;SDS011;25887;30.194;-97.880;2023-04-15T14:03:02;4.55;;;1.90;;
38879;SDS011;25887;30.194;-97.880;2023-04-15T14:05:29;4.40;;;1.83;;
38879;SDS011;25887;30.194;-97.880;2023-04-15T14:07:55;3.42;;;2.10;;
38879;SDS011;25887;30.194;-97.880;2023-04-15T14:10:21;3.75;;;2.40;;
38879;SDS011;25887;30.194;-97.880;2023-04-15T14:12:47;4.63;;;2.05;;
38879;SDS011;25887;30.194;-97.880;2023-04-15T14:15:14;4.95;;;2.20;;
38879;SDS011;25887;30.194;-97.880;2023-04-15T14:17:42;5.97;;;2.78;;
38879;SDS011;25887;30.194;-97.880;2023-04-15T14:20:08;6.60;;;2.80;;
38879;SDS011;25887;30.194;-97.880;2023-04-15T14:22:37;6.50;;;2.90;;
38879;SDS011;25887;30.194;-97.880;2023-04-15T14:25:04;8.80;;;3.20;;
38879;SDS011;25887;30.194;-97.880;2023-04-15T14:27:31;6.28;;;2.90;;
38879;SDS011;25887;30.194;-97.880;2023-04-15T14:29:57;5.47;;;3.13;;
38879;SDS011;25887;30.194;-97.880;2023-04-15T14:32:24;5.70;;;3.22;;
38879;SDS011;25887;30.194;-97.880;2023-04-15T14:34:51;5.38;;;2.90;;
38879;SDS011;25887;30.194;-97.880;2023-04-15T14:37:17;6.53;;;3.47;;
38879;SDS011;25887;30.194;-97.880;2023-04-15T14:39:43;4.93;;;3.08;;
38879;SDS011;25887;30.194;-97.880;2023-04-15T14:42:09;8.82;;;3.83;;
38879;SDS011;25887;30.194;-97.880;2023-04-15T14:44:39;9.93;;;4.55;;
38879;SDS011;25887;30.194;-97.880;2023-04-15T14:47:09;8.45;;;4.72;;
38879;SDS011;25887;30.194;-97.880;2023-04-15T14:49:44;10.13;;;5.03;;